createdAt,value
2019-05-05T00:00:04.985Z,1.01
2019-05-05T00:15:05.327Z,0.98
2019-05-05T00:30:05.438Z,1.01
2019-05-05T00:45:05.514Z,1.08
2019-05-05T01:00:05.179Z,1.14
2019-05-05T01:15:05.164Z,1.08
2019-05-05T01:30:05.213Z,0.99
2019-05-05T01:45:05.245Z,1.04
2019-05-05T02:00:05.305Z,1.05
2019-05-05T02:15:05.314Z,1
2019-05-05T02:30:06.356Z,0.98
2019-05-05T02:45:05.736Z,1.07
2019-05-05T03:00:05.437Z,1.2
2019-05-05T03:15:05.473Z,1.09
2019-05-05T03:30:05.536Z,1.01
2019-05-05T03:45:05.557Z,1.16
2019-05-05T04:00:05.593Z,1.34
2019-05-05T04:15:06.086Z,1.14
2019-05-05T04:30:05.915Z,1.04
2019-05-05T04:45:06.395Z,1.18
2019-05-05T05:00:05.968Z,1.17
2019-05-05T05:15:06.021Z,1.11
2019-05-05T05:30:06.074Z,1.09
2019-05-05T05:45:06.181Z,1.15
2019-05-05T06:00:06.134Z,1.28
2019-05-05T06:15:06.186Z,1.1
2019-05-05T06:30:06.898Z,1.07
2019-05-05T06:45:04.188Z,1
2019-05-05T07:00:05.748Z,1.12
2019-05-05T07:15:07.611Z,1.06
2019-05-05T07:30:09.948Z,1.21
2019-05-05T07:45:20.111Z,1.13
2019-05-05T08:00:10.689Z,1.38
2019-05-05T08:15:10.974Z,1.18
2019-05-05T08:30:11.244Z,1.23
2019-05-05T08:45:13.582Z,1.24
2019-05-05T09:00:07.487Z,1.42
2019-05-05T09:15:07.840Z,1.3
2019-05-05T09:30:08.201Z,1.31
2019-05-05T09:45:08.468Z,1.29
2019-05-05T10:00:08.489Z,1.38
2019-05-05T10:15:07.558Z,1.35
2019-05-05T10:30:10.639Z,1.32
2019-05-05T10:45:05.912Z,1.35
2019-05-05T11:00:11.799Z,1.6
2019-05-05T11:15:07.440Z,1.41
2019-05-05T11:30:08.024Z,1.39
2019-05-05T11:45:08.071Z,1.43
2019-05-05T12:00:08.396Z,1.45
2019-05-05T12:15:13.286Z,1.3
2019-05-05T12:30:14.125Z,1.46
2019-05-05T12:45:04.348Z,1.42
2019-05-05T13:00:04.161Z,1.51
2019-05-05T13:15:04.140Z,1.35
2019-05-05T13:30:04.266Z,1.3
2019-05-05T13:45:05.027Z,1.28
2019-05-05T14:00:07.208Z,1.43
2019-05-05T14:15:08.527Z,1.27
2019-05-05T14:30:10.585Z,1.17
2019-05-05T14:45:08.655Z,1.24
2019-05-05T15:00:13.654Z,1.45
2019-05-05T15:15:07.217Z,1.28
2019-05-05T15:30:04.751Z,1.18
2019-05-05T15:45:06.663Z,1.33
2019-05-05T16:00:10.686Z,1.37
2019-05-05T16:15:10.070Z,1.18
2019-05-05T16:30:14.299Z,1.11
2019-05-05T16:45:10.507Z,1.13
2019-05-05T17:00:13.585Z,1.35
2019-05-05T17:15:12.607Z,1.09
2019-05-05T17:30:05.535Z,0.99
2019-05-05T17:45:10.340Z,0.99
2019-05-05T18:00:08.875Z,0.98
2019-05-05T18:15:09.021Z,0.94
2019-05-05T18:30:04.017Z,0.96
2019-05-05T18:45:11.784Z,0.88
2019-05-05T19:00:13.803Z,1.24
2019-05-05T19:15:13.580Z,1.12
2019-05-05T19:30:13.266Z,1.03
2019-05-05T19:45:11.936Z,1.09
2019-05-05T20:00:11.981Z,1.18
2019-05-05T20:15:12.021Z,1.06
2019-05-05T20:30:09.157Z,0.99
2019-05-05T20:45:09.185Z,1.08
2019-05-05T21:00:09.227Z,1.07
2019-05-05T21:15:09.255Z,1.26
2019-05-05T21:30:09.309Z,1.11
2019-05-05T21:45:09.331Z,1.02
2019-05-05T22:00:09.560Z,1.16
2019-05-05T22:15:09.409Z,1.22
2019-05-05T22:30:10.425Z,1.17
2019-05-05T22:45:09.495Z,1.09
2019-05-05T23:00:22.559Z,1.06
2019-05-05T23:15:10.208Z,1.13
2019-05-05T23:30:10.235Z,1.17
2019-05-05T23:45:10.216Z,1.11
